sensor_id;sensor_type;location;lat;lon;timestamp;temperature;humidity
52459;DHT22;38372;52.902;6.024;2023-02-25T00:02:11;4.40;99.90
52459;DHT22;38372;52.902;6.024;2023-02-25T00:04:37;4.40;99.90
52459;DHT22;38372;52.902;6.024;2023-02-25T00:07:05;4.40;99.90
52459;DHT22;38372;52.902;6.024;2023-02-25T00:09:30;4.40;99.90
52459;DHT22;38372;52.902;6.024;2023-02-25T00:11:56;4.40;99.90
52459;DHT22;38372;52.902;6.024;2023-02-25T00:14:22;4.30;99.90
52459;DHT22;38372;52.902;6.024;2023-02-25T00:16:48;4.40;99.90
52459;DHT22;38372;52.902;6.024;2023-02-25T00:19:14;4.30;99.90
52459;DHT22;38372;52.902;6.024;2023-02-25T00:21:40;4.30;99.90
52459;DHT22;38372;52.902;6.024;2023-02-25T00:24:06;4.40;99.90
52459;DHT22;38372;52.902;6.024;2023-02-25T00:26:32;4.40;99.90
52459;DHT22;38372;52.902;6.024;2023-02-25T00:28:57;4.40;99.90
52459;DHT22;38372;52.902;6.024;2023-02-25T00:31:24;4.40;99.90
52459;DHT22;38372;52.902;6.024;2023-02-25T00:33:50;4.40;99.90
52459;DHT22;38372;52.902;6.024;2023-02-25T00:36:22;4.30;99.90
52459;DHT22;38372;52.902;6.024;2023-02-25T00:38:53;4.30;99.90
52459;DHT22;38372;52.902;6.024;2023-02-25T00:41:25;4.30;99.90
52459;DHT22;38372;52.902;6.024;2023-02-25T00:43:56;4.30;99.90
52459;DHT22;38372;52.902;6.024;2023-02-25T00:46:23;4.30;99.90
52459;DHT22;38372;52.902;6.024;2023-02-25T00:48:49;4.30;99.90
52459;DHT22;38372;52.902;6.024;2023-02-25T00:51:17;4.30;99.90
52459;DHT22;38372;52.902;6.024;2023-02-25T00:53:44;4.30;99.90
52459;DHT22;38372;52.902;6.024;2023-02-25T00:56:12;4.30;99.90
52459;DHT22;38372;52.902;6.024;2023-02-25T00:58:43;4.20;99.90
52459;DHT22;38372;52.902;6.024;2023-02-25T01:03:47;4.20;99.90
52459;DHT22;38372;52.902;6.024;2023-02-25T01:06:13;4.20;99.90
52459;DHT22;38372;52.902;6.024;2023-02-25T01:08:39;4.20;99.90
52459;DHT22;38372;52.902;6.024;2023-02-25T01:11:17;4.20;99.90
52459;DHT22;38372;52.902;6.024;2023-02-25T01:13:46;4.20;99.90
52459;DHT22;38372;52.902;6.024;2023-02-25T01:16:14;4.20;99.90
52459;DHT22;38372;52.902;6.024;2023-02-25T01:18:41;4.20;99.90
52459;DHT22;38372;52.902;6.024;2023-02-25T01:21:07;4.30;99.90
52459;DHT22;38372;52.902;6.024;2023-02-25T01:23:33;4.40;99.90
52459;DHT22;38372;52.902;6.024;2023-02-25T01:26:01;4.40;99.90
52459;DHT22;38372;52.902;6.024;2023-02-25T01:28:27;4.50;99.90
52459;DHT22;38372;52.902;6.024;2023-02-25T01:30:53;4.50;99.90
52459;DHT22;38372;52.902;6.024;2023-02-25T01:33:19;4.50;99.90
52459;DHT22;38372;52.902;6.024;2023-02-25T01:35:44;4.50;99.90
52459;DHT22;38372;52.902;6.024;2023-02-25T01:38:10;4.50;99.90
52459;DHT22;38372;52.902;6.024;2023-02-25T01:40:36;4.50;99.90
52459;DHT22;38372;52.902;6.024;2023-02-25T01:43:04;4.50;99.90
52459;DHT22;38372;52.902;6.024;2023-02-25T01:45:31;4.50;99.90
52459;DHT22;38372;52.902;6.024;2023-02-25T01:48:11;4.50;99.90
52459;DHT22;38372;52.902;6.024;2023-02-25T01:50:55;4.50;99.90
52459;DHT22;38372;52.902;6.024;2023-02-25T01:53:32;4.50;99.90
52459;DHT22;38372;52.902;6.024;2023-02-25T01:55:59;4.50;99.90
52459;DHT22;38372;52.902;6.024;2023-02-25T01:58:26;4.50;99.90
52459;DHT22;38372;52.902;6.024;2023-02-25T02:00:52;4.50;99.90
52459;DHT22;38372;52.902;6.024;2023-02-25T02:03:23;4.60;99.90
52459;DHT22;38372;52.902;6.024;2023-02-25T02:08:34;4.60;99.90
52459;DHT22;38372;52.902;6.024;2023-02-25T02:11:01;4.50;99.90
52459;DHT22;38372;52.902;6.024;2023-02-25T02:13:28;4.50;99.90
52459;DHT22;38372;52.902;6.024;2023-02-25T02:16:18;4.40;99.90
52459;DHT22;38372;52.902;6.024;2023-02-25T02:18:58;4.30;99.90
52459;DHT22;38372;52.902;6.024;2023-02-25T02:24:39;4.20;99.90
52459;DHT22;38372;52.902;6.024;2023-02-25T02:30:08;4.00;99.90
52459;DHT22;38372;52.902;6.024;2023-02-25T02:32:53;4.00;99.90
52459;DHT22;38372;52.902;6.024;2023-02-25T02:35:50;4.00;99.90
52459;DHT22;38372;52.902;6.024;2023-02-25T02:44:16;4.00;99.90
52459;DHT22;38372;52.902;6.024;2023-02-25T02:46:58;4.00;99.90
52459;DHT22;38372;52.902;6.024;2023-02-25T02:52:00;3.90;99.90
52459;DHT22;38372;52.902;6.024;2023-02-25T02:54:31;3.90;99.90
52459;DHT22;38372;52.902;6.024;2023-02-25T02:57:00;3.80;99.90
52459;DHT22;38372;52.902;6.024;2023-02-25T02:59:31;3.70;99.90
52459;DHT22;38372;52.902;6.024;2023-02-25T03:02:11;3.70;99.90
52459;DHT22;38372;52.902;6.024;2023-02-25T03:04:40;3.70;99.90
52459;DHT22;38372;52.902;6.024;2023-02-25T03:07:09;3.70;99.90
52459;DHT22;38372;52.902;6.024;2023-02-25T03:09:48;3.70;99.90
52459;DHT22;38372;52.902;6.024;2023-02-25T03:12:15;3.70;99.90
52459;DHT22;38372;52.902;6.024;2023-02-25T03:14:41;3.60;99.90
52459;DHT22;38372;52.902;6.024;2023-02-25T03:17:28;3.60;99.90
52459;DHT22;38372;52.902;6.024;2023-02-25T03:20:04;3.60;99.90
52459;DHT22;38372;52.902;6.024;2023-02-25T03:22:40;3.60;99.90
52459;DHT22;38372;52.902;6.024;2023-02-25T03:25:31;3.50;99.90
52459;DHT22;38372;52.902;6.024;2023-02-25T03:28:14;3.50;99.90
52459;DHT22;38372;52.902;6.024;2023-02-25T03:34:00;3.50;99.90
52459;DHT22;38372;52.902;6.024;2023-02-25T03:36:33;3.50;99.90
52459;DHT22;38372;52.902;6.024;2023-02-25T03:39:09;3.40;99.90
52459;DHT22;38372;52.902;6.024;2023-02-25T03:41:39;3.40;99.90
52459;DHT22;38372;52.902;6.024;2023-02-25T03:44:08;3.30;99.90
52459;DHT22;38372;52.902;6.024;2023-02-25T03:46:35;3.30;99.90
52459;DHT22;38372;52.902;6.024;2023-02-25T03:49:03;3.30;99.90
52459;DHT22;38372;52.902;6.024;2023-02-25T03:51:33;3.20;99.90
52459;DHT22;38372;52.902;6.024;2023-02-25T03:54:00;3.20;99.90
52459;DHT22;38372;52.902;6.024;2023-02-25T03:56:27;3.20;99.90
52459;DHT22;38372;52.902;6.024;2023-02-25T03:58:53;3.20;99.90
52459;DHT22;38372;52.902;6.024;2023-02-25T04:01:26;3.20;99.90
52459;DHT22;38372;52.902;6.024;2023-02-25T04:03:53;3.30;99.90
52459;DHT22;38372;52.902;6.024;2023-02-25T04:06:21;3.30;99.90
52459;DHT22;38372;52.902;6.024;2023-02-25T04:08:47;3.40;99.90
52459;DHT22;38372;52.902;6.024;2023-02-25T04:11:13;3.50;99.90
52459;DHT22;38372;52.902;6.024;2023-02-25T04:13:39;3.60;99.90
52459;DHT22;38372;52.902;6.024;2023-02-25T04:16:05;3.70;99.90
52459;DHT22;38372;52.902;6.024;2023-02-25T04:18:33;3.80;99.90
52459;DHT22;38372;52.902;6.024;2023-02-25T04:20:59;3.90;99.90
52459;DHT22;38372;52.902;6.024;2023-02-25T04:23:25;3.90;99.90
52459;DHT22;38372;52.902;6.024;2023-02-25T04:25:51;4.00;99.90
52459;DHT22;38372;52.902;6.024;2023-02-25T04:28:17;4.00;99.90
52459;DHT22;38372;52.902;6.024;2023-02-25T04:30:43;4.00;99.90
52459;DHT22;38372;52.902;6.024;2023-02-25T04:33:10;4.00;99.90
52459;DHT22;38372;52.902;6.024;2023-02-25T04:35:36;4.00;99.90
52459;DHT22;38372;52.902;6.024;2023-02-25T04:38:02;4.10;99.90
52459;DHT22;38372;52.902;6.024;2023-02-25T04:40:28;4.00;99.90
52459;DHT22;38372;52.902;6.024;2023-02-25T04:42:54;4.00;99.90
52459;DHT22;38372;52.902;6.024;2023-02-25T04:45:19;4.00;99.90
52459;DHT22;38372;52.902;6.024;2023-02-25T04:47:54;4.00;99.90
52459;DHT22;38372;52.902;6.024;2023-02-25T04:50:22;4.00;99.90
52459;DHT22;38372;52.902;6.024;2023-02-25T04:52:48;3.90;99.90
52459;DHT22;38372;52.902;6.024;2023-02-25T04:55:14;3.90;99.90
52459;DHT22;38372;52.902;6.024;2023-02-25T04:57:40;3.80;99.90
52459;DHT22;38372;52.902;6.024;2023-02-25T05:00:33;3.70;99.90
52459;DHT22;38372;52.902;6.024;2023-02-25T05:02:59;3.70;99.90
52459;DHT22;38372;52.902;6.024;2023-02-25T05:05:24;3.60;99.90
52459;DHT22;38372;52.902;6.024;2023-02-25T05:07:50;3.50;99.90
52459;DHT22;38372;52.902;6.024;2023-02-25T05:10:16;3.50;99.90
52459;DHT22;38372;52.902;6.024;2023-02-25T05:12:42;3.40;99.90
52459;DHT22;38372;52.902;6.024;2023-02-25T05:15:09;3.50;99.90
52459;DHT22;38372;52.902;6.024;2023-02-25T05:17:35;3.50;99.90
52459;DHT22;38372;52.902;6.024;2023-02-25T05:20:01;3.50;99.90
52459;DHT22;38372;52.902;6.024;2023-02-25T05:22:27;3.50;99.90
52459;DHT22;38372;52.902;6.024;2023-02-25T05:24:53;3.50;99.90
52459;DHT22;38372;52.902;6.024;2023-02-25T05:27:18;3.60;99.90
52459;DHT22;38372;52.902;6.024;2023-02-25T05:29:44;3.60;99.90
52459;DHT22;38372;52.902;6.024;2023-02-25T05:32:10;3.60;99.90
52459;DHT22;38372;52.902;6.024;2023-02-25T05:34:36;3.70;99.90
52459;DHT22;38372;52.902;6.024;2023-02-25T05:37:02;3.70;99.90
52459;DHT22;38372;52.902;6.024;2023-02-25T05:39:27;3.70;99.90
52459;DHT22;38372;52.902;6.024;2023-02-25T05:41:53;3.80;99.90
52459;DHT22;38372;52.902;6.024;2023-02-25T05:44:19;3.80;99.90
52459;DHT22;38372;52.902;6.024;2023-02-25T05:46:45;3.80;99.90
52459;DHT22;38372;52.902;6.024;2023-02-25T05:49:10;3.80;99.90
52459;DHT22;38372;52.902;6.024;2023-02-25T05:51:36;3.80;99.90
52459;DHT22;38372;52.902;6.024;2023-02-25T05:54:03;3.90;99.90
52459;DHT22;38372;52.902;6.024;2023-02-25T05:56:29;3.90;99.90
52459;DHT22;38372;52.902;6.024;2023-02-25T05:58:55;3.90;99.90
52459;DHT22;38372;52.902;6.024;2023-02-25T06:01:24;3.90;99.90
52459;DHT22;38372;52.902;6.024;2023-02-25T06:03:52;3.90;99.90
52459;DHT22;38372;52.902;6.024;2023-02-25T06:06:19;3.80;99.90
52459;DHT22;38372;52.902;6.024;2023-02-25T06:08:47;3.80;99.90
52459;DHT22;38372;52.902;6.024;2023-02-25T06:11:22;3.70;99.90
52459;DHT22;38372;52.902;6.024;2023-02-25T06:13:53;3.70;99.90
52459;DHT22;38372;52.902;6.024;2023-02-25T06:16:19;3.70;99.90
52459;DHT22;38372;52.902;6.024;2023-02-25T06:18:46;3.60;99.90
52459;DHT22;38372;52.902;6.024;2023-02-25T06:21:13;3.60;99.90
52459;DHT22;38372;52.902;6.024;2023-02-25T06:23:40;3.50;99.90
52459;DHT22;38372;52.902;6.024;2023-02-25T06:26:08;3.50;99.90
52459;DHT22;38372;52.902;6.024;2023-02-25T06:28:36;3.50;99.90
52459;DHT22;38372;52.902;6.024;2023-02-25T06:31:05;3.40;99.90
52459;DHT22;38372;52.902;6.024;2023-02-25T06:33:31;3.40;99.90
52459;DHT22;38372;52.902;6.024;2023-02-25T06:35:57;3.40;99.90
52459;DHT22;38372;52.902;6.024;2023-02-25T06:38:23;3.40;99.90
52459;DHT22;38372;52.902;6.024;2023-02-25T06:40:49;3.40;99.90
52459;DHT22;38372;52.902;6.024;2023-02-25T06:43:16;3.40;99.90
52459;DHT22;38372;52.902;6.024;2023-02-25T06:45:42;3.40;99.90
52459;DHT22;38372;52.902;6.024;2023-02-25T06:48:08;3.40;99.90
52459;DHT22;38372;52.902;6.024;2023-02-25T06:50:34;3.30;99.90
52459;DHT22;38372;52.902;6.024;2023-02-25T06:53:00;3.30;99.90
52459;DHT22;38372;52.902;6.024;2023-02-25T06:55:26;3.30;99.90
52459;DHT22;38372;52.902;6.024;2023-02-25T06:57:51;3.30;99.90
52459;DHT22;38372;52.902;6.024;2023-02-25T07:00:19;3.30;99.90
52459;DHT22;38372;52.902;6.024;2023-02-25T07:02:45;3.30;99.90
52459;DHT22;38372;52.902;6.024;2023-02-25T07:05:11;3.30;99.90
52459;DHT22;38372;52.902;6.024;2023-02-25T07:07:37;3.30;99.90
52459;DHT22;38372;52.902;6.024;2023-02-25T07:10:04;3.30;99.90
52459;DHT22;38372;52.902;6.024;2023-02-25T07:12:30;3.30;99.90
52459;DHT22;38372;52.902;6.024;2023-02-25T07:14:57;3.30;99.90
52459;DHT22;38372;52.902;6.024;2023-02-25T07:17:23;3.30;99.90
52459;DHT22;38372;52.902;6.024;2023-02-25T07:19:49;3.30;99.90
52459;DHT22;38372;52.902;6.024;2023-02-25T07:22:16;3.30;99.90
52459;DHT22;38372;52.902;6.024;2023-02-25T07:24:43;3.30;99.90
52459;DHT22;38372;52.902;6.024;2023-02-25T07:27:11;3.20;99.90
52459;DHT22;38372;52.902;6.024;2023-02-25T07:29:38;3.10;99.90
52459;DHT22;38372;52.902;6.024;2023-02-25T07:32:04;3.10;99.90
52459;DHT22;38372;52.902;6.024;2023-02-25T07:34:30;3.00;99.90
52459;DHT22;38372;52.902;6.024;2023-02-25T07:36:56;3.00;99.90
52459;DHT22;38372;52.902;6.024;2023-02-25T07:39:22;2.90;99.90
52459;DHT22;38372;52.902;6.024;2023-02-25T07:41:48;2.80;99.90
52459;DHT22;38372;52.902;6.024;2023-02-25T07:44:13;2.80;99.90
52459;DHT22;38372;52.902;6.024;2023-02-25T07:46:39;2.80;99.90
52459;DHT22;38372;52.902;6.024;2023-02-25T07:49:06;2.80;99.90
52459;DHT22;38372;52.902;6.024;2023-02-25T07:51:33;2.80;99.90
52459;DHT22;38372;52.902;6.024;2023-02-25T07:53:59;2.70;99.90
52459;DHT22;38372;52.902;6.024;2023-02-25T07:56:27;2.80;99.90
52459;DHT22;38372;52.902;6.024;2023-02-25T07:58:53;2.90;99.90
52459;DHT22;38372;52.902;6.024;2023-02-25T08:01:23;3.00;99.90
52459;DHT22;38372;52.902;6.024;2023-02-25T08:03:54;3.10;99.90
52459;DHT22;38372;52.902;6.024;2023-02-25T08:06:20;3.20;99.90
52459;DHT22;38372;52.902;6.024;2023-02-25T08:08:47;3.40;99.90
52459;DHT22;38372;52.902;6.024;2023-02-25T08:11:15;3.60;99.90
52459;DHT22;38372;52.902;6.024;2023-02-25T08:13:41;3.80;99.90
52459;DHT22;38372;52.902;6.024;2023-02-25T08:16:09;4.10;99.90
52459;DHT22;38372;52.902;6.024;2023-02-25T08:18:36;4.60;99.90
52459;DHT22;38372;52.902;6.024;2023-02-25T08:21:02;5.10;99.90
52459;DHT22;38372;52.902;6.024;2023-02-25T08:23:29;5.50;99.90
52459;DHT22;38372;52.902;6.024;2023-02-25T08:25:57;5.80;99.90
52459;DHT22;38372;52.902;6.024;2023-02-25T08:28:24;6.10;99.90
52459;DHT22;38372;52.902;6.024;2023-02-25T08:30:51;6.20;99.90
52459;DHT22;38372;52.902;6.024;2023-02-25T08:33:18;6.40;99.90
52459;DHT22;38372;52.902;6.024;2023-02-25T08:38:54;7.10;99.90
52459;DHT22;38372;52.902;6.024;2023-02-25T08:41:23;7.50;99.90
52459;DHT22;38372;52.902;6.024;2023-02-25T08:43:50;7.90;99.90
52459;DHT22;38372;52.902;6.024;2023-02-25T08:46:19;8.30;99.90
52459;DHT22;38372;52.902;6.024;2023-02-25T08:48:48;8.70;99.90
52459;DHT22;38372;52.902;6.024;2023-02-25T08:51:14;9.10;99.90
52459;DHT22;38372;52.902;6.024;2023-02-25T08:53:40;9.50;99.90
52459;DHT22;38372;52.902;6.024;2023-02-25T08:56:08;9.70;99.90
52459;DHT22;38372;52.902;6.024;2023-02-25T08:58:34;10.00;99.90
52459;DHT22;38372;52.902;6.024;2023-02-25T09:01:00;10.20;99.90
52459;DHT22;38372;52.902;6.024;2023-02-25T09:03:26;10.20;99.90
52459;DHT22;38372;52.902;6.024;2023-02-25T09:05:54;9.60;99.90
52459;DHT22;38372;52.902;6.024;2023-02-25T09:08:20;8.80;99.90
52459;DHT22;38372;52.902;6.024;2023-02-25T09:10:46;8.00;99.90
52459;DHT22;38372;52.902;6.024;2023-02-25T09:13:12;7.40;99.90
52459;DHT22;38372;52.902;6.024;2023-02-25T09:15:39;7.40;99.90
52459;DHT22;38372;52.902;6.024;2023-02-25T09:18:04;8.10;99.90
52459;DHT22;38372;52.902;6.024;2023-02-25T09:20:30;8.30;99.90
52459;DHT22;38372;52.902;6.024;2023-02-25T09:22:56;8.10;99.90
52459;DHT22;38372;52.902;6.024;2023-02-25T09:25:24;7.80;99.90
52459;DHT22;38372;52.902;6.024;2023-02-25T09:27:50;8.20;99.90
52459;DHT22;38372;52.902;6.024;2023-02-25T09:30:16;8.90;99.90
52459;DHT22;38372;52.902;6.024;2023-02-25T09:32:42;9.50;99.90
52459;DHT22;38372;52.902;6.024;2023-02-25T09:35:10;10.10;99.90
52459;DHT22;38372;52.902;6.024;2023-02-25T09:37:37;10.70;99.90
52459;DHT22;38372;52.902;6.024;2023-02-25T09:40:03;11.30;99.90
52459;DHT22;38372;52.902;6.024;2023-02-25T09:45:22;11.70;99.90
52459;DHT22;38372;52.902;6.024;2023-02-25T09:47:54;11.90;99.90
52459;DHT22;38372;52.902;6.024;2023-02-25T09:50:34;12.00;99.90
52459;DHT22;38372;52.902;6.024;2023-02-25T09:55:48;12.10;99.90
52459;DHT22;38372;52.902;6.024;2023-02-25T10:01:05;12.20;99.90
52459;DHT22;38372;52.902;6.024;2023-02-25T10:04:06;12.40;99.90
52459;DHT22;38372;52.902;6.024;2023-02-25T10:06:40;12.40;99.90
52459;DHT22;38372;52.902;6.024;2023-02-25T10:25:48;11.60;99.90
52459;DHT22;38372;52.902;6.024;2023-02-25T10:28:17;11.90;99.90
52459;DHT22;38372;52.902;6.024;2023-02-25T10:31:07;11.70;99.90
52459;DHT22;38372;52.902;6.024;2023-02-25T10:33:39;11.10;96.20
52459;DHT22;38372;52.902;6.024;2023-02-25T10:38:51;9.30;97.80
52459;DHT22;38372;52.902;6.024;2023-02-25T10:41:19;9.10;99.70
52459;DHT22;38372;52.902;6.024;2023-02-25T10:43:48;9.80;99.90
52459;DHT22;38372;52.902;6.024;2023-02-25T10:46:17;10.90;99.90
52459;DHT22;38372;52.902;6.024;2023-02-25T10:48:49;11.40;99.90
52459;DHT22;38372;52.902;6.024;2023-02-25T10:51:18;10.90;99.20
52459;DHT22;38372;52.902;6.024;2023-02-25T10:56:30;9.10;99.90
52459;DHT22;38372;52.902;6.024;2023-02-25T10:59:07;8.30;99.90
52459;DHT22;38372;52.902;6.024;2023-02-25T11:01:43;7.80;99.90
52459;DHT22;38372;52.902;6.024;2023-02-25T11:04:14;7.40;99.90
52459;DHT22;38372;52.902;6.024;2023-02-25T11:06:42;7.10;99.90
52459;DHT22;38372;52.902;6.024;2023-02-25T11:11:56;7.20;99.90
52459;DHT22;38372;52.902;6.024;2023-02-25T11:14:30;8.20;99.90
52459;DHT22;38372;52.902;6.024;2023-02-25T11:19:39;10.30;99.90
52459;DHT22;38372;52.902;6.024;2023-02-25T11:24:43;11.80;99.90
52459;DHT22;38372;52.902;6.024;2023-02-25T11:27:38;12.50;99.90
52459;DHT22;38372;52.902;6.024;2023-02-25T11:32:47;11.20;99.90
52459;DHT22;38372;52.902;6.024;2023-02-25T11:35:19;11.00;99.90
52459;DHT22;38372;52.902;6.024;2023-02-25T11:37:46;11.30;99.90
52459;DHT22;38372;52.902;6.024;2023-02-25T11:45:29;12.60;99.90
52459;DHT22;38372;52.902;6.024;2023-02-25T11:47:56;11.80;99.90
52459;DHT22;38372;52.902;6.024;2023-02-25T11:50:42;10.90;99.90
52459;DHT22;38372;52.902;6.024;2023-02-25T11:53:20;10.40;99.90
52459;DHT22;38372;52.902;6.024;2023-02-25T11:58:49;10.10;99.90
52459;DHT22;38372;52.902;6.024;2023-02-25T12:04:07;9.10;99.90
52459;DHT22;38372;52.902;6.024;2023-02-25T12:07:02;8.50;99.90
52459;DHT22;38372;52.902;6.024;2023-02-25T12:27:38;11.20;98.30
52459;DHT22;38372;52.902;6.024;2023-02-25T12:36:41;10.50;96.90
52459;DHT22;38372;52.902;6.024;2023-02-25T13:04:37;11.00;94.60
52459;DHT22;38372;52.902;6.024;2023-02-25T13:23:45;9.50;93.70
52459;DHT22;38372;52.902;6.024;2023-02-25T13:26:58;9.40;93.50
52459;DHT22;38372;52.902;6.024;2023-02-25T13:52:05;8.00;97.10
52459;DHT22;38372;52.902;6.024;2023-02-25T13:54:41;7.80;97.30
52459;DHT22;38372;52.902;6.024;2023-02-25T13:57:23;7.50;97.30
52459;DHT22;38372;52.902;6.024;2023-02-25T14:06:09;6.50;97.20
52459;DHT22;38372;52.902;6.024;2023-02-25T14:11:37;6.70;98.50
52459;DHT22;38372;52.902;6.024;2023-02-25T14:19:39;7.10;98.50
52459;DHT22;38372;52.902;6.024;2023-02-25T14:33:16;7.00;99.70
52459;DHT22;38372;52.902;6.024;2023-02-25T14:36:14;7.20;99.30
52459;DHT22;38372;52.902;6.024;2023-02-25T14:41:34;7.60;97.40
52459;DHT22;38372;52.902;6.024;2023-02-25T14:44:14;7.50;97.00
52459;DHT22;38372;52.902;6.024;2023-02-25T14:46:58;7.80;97.60
52459;DHT22;38372;52.902;6.024;2023-02-25T14:49:30;8.30;96.00
52459;DHT22;38372;52.902;6.024;2023-02-25T15:13:51;7.20;96.30
52459;DHT22;38372;52.902;6.024;2023-02-25T15:22:29;6.40;98.10
52459;DHT22;38372;52.902;6.024;2023-02-25T15:27:52;6.20;98.60
52459;DHT22;38372;52.902;6.024;2023-02-25T15:30:22;6.30;99.20
52459;DHT22;38372;52.902;6.024;2023-02-25T15:38:37;5.90;99.30
52459;DHT22;38372;52.902;6.024;2023-02-25T15:46:46;5.30;99.90
52459;DHT22;38372;52.902;6.024;2023-02-25T15:49:34;5.30;99.90
52459;DHT22;38372;52.902;6.024;2023-02-25T15:52:01;5.20;99.90
52459;DHT22;38372;52.902;6.024;2023-02-25T15:56:58;5.10;99.90
52459;DHT22;38372;52.902;6.024;2023-02-25T15:59:43;5.10;99.90
52459;DHT22;38372;52.902;6.024;2023-02-25T16:07:37;5.20;99.90
52459;DHT22;38372;52.902;6.024;2023-02-25T16:10:24;5.10;99.90
52459;DHT22;38372;52.902;6.024;2023-02-25T16:12:54;5.10;99.90
52459;DHT22;38372;52.902;6.024;2023-02-25T16:15:26;5.10;99.90
52459;DHT22;38372;52.902;6.024;2023-02-25T16:17:56;5.00;99.90
52459;DHT22;38372;52.902;6.024;2023-02-25T16:20:27;4.90;99.90
52459;DHT22;38372;52.902;6.024;2023-02-25T16:22:59;4.70;99.90
52459;DHT22;38372;52.902;6.024;2023-02-25T16:26:03;4.60;99.90
52459;DHT22;38372;52.902;6.024;2023-02-25T16:31:31;4.50;99.90
52459;DHT22;38372;52.902;6.024;2023-02-25T16:34:05;4.40;99.90
52459;DHT22;38372;52.902;6.024;2023-02-25T16:36:48;4.30;99.90
52459;DHT22;38372;52.902;6.024;2023-02-25T16:39:23;4.20;99.90
52459;DHT22;38372;52.902;6.024;2023-02-25T16:41:51;4.10;99.90
52459;DHT22;38372;52.902;6.024;2023-02-25T16:44:39;4.00;99.90
52459;DHT22;38372;52.902;6.024;2023-02-25T16:47:23;4.00;99.90
52459;DHT22;38372;52.902;6.024;2023-02-25T16:49:50;3.90;99.90
52459;DHT22;38372;52.902;6.024;2023-02-25T16:52:39;3.70;99.90
52459;DHT22;38372;52.902;6.024;2023-02-25T16:55:07;3.70;99.90
52459;DHT22;38372;52.902;6.024;2023-02-25T16:57:37;3.60;99.90
52459;DHT22;38372;52.902;6.024;2023-02-25T17:00:14;3.50;99.90
52459;DHT22;38372;52.902;6.024;2023-02-25T17:02:46;3.30;99.90
52459;DHT22;38372;52.902;6.024;2023-02-25T17:05:34;3.20;99.90
52459;DHT22;38372;52.902;6.024;2023-02-25T17:08:04;3.10;99.90
52459;DHT22;38372;52.902;6.024;2023-02-25T17:10:42;3.10;99.90
52459;DHT22;38372;52.902;6.024;2023-02-25T17:13:13;2.90;99.90
52459;DHT22;38372;52.902;6.024;2023-02-25T17:15:40;2.80;99.90
52459;DHT22;38372;52.902;6.024;2023-02-25T17:18:28;2.70;99.90
52459;DHT22;38372;52.902;6.024;2023-02-25T17:23:56;2.60;99.90
52459;DHT22;38372;52.902;6.024;2023-02-25T17:26:23;2.50;99.90
52459;DHT22;38372;52.902;6.024;2023-02-25T17:28:52;2.40;99.90
52459;DHT22;38372;52.902;6.024;2023-02-25T17:31:21;2.30;99.90
52459;DHT22;38372;52.902;6.024;2023-02-25T17:33:53;2.10;99.90
52459;DHT22;38372;52.902;6.024;2023-02-25T17:36:23;2.00;99.90
52459;DHT22;38372;52.902;6.024;2023-02-25T17:38:54;2.00;99.90
52459;DHT22;38372;52.902;6.024;2023-02-25T17:41:21;2.00;99.90
52459;DHT22;38372;52.902;6.024;2023-02-25T17:43:47;2.00;99.90
52459;DHT22;38372;52.902;6.024;2023-02-25T17:46:22;2.10;99.90
52459;DHT22;38372;52.902;6.024;2023-02-25T17:48:57;2.30;99.90
52459;DHT22;38372;52.902;6.024;2023-02-25T17:51:32;2.30;99.90
52459;DHT22;38372;52.902;6.024;2023-02-25T17:54:06;2.40;99.90
52459;DHT22;38372;52.902;6.024;2023-02-25T17:56:33;2.50;99.90
52459;DHT22;38372;52.902;6.024;2023-02-25T18:01:44;2.40;99.90
52459;DHT22;38372;52.902;6.024;2023-02-25T18:04:24;2.30;99.90
52459;DHT22;38372;52.902;6.024;2023-02-25T18:06:51;2.30;99.90
52459;DHT22;38372;52.902;6.024;2023-02-25T18:09:27;2.20;99.90
52459;DHT22;38372;52.902;6.024;2023-02-25T18:11:57;2.00;99.90
52459;DHT22;38372;52.902;6.024;2023-02-25T18:14:35;1.90;99.90
52459;DHT22;38372;52.902;6.024;2023-02-25T18:19:43;1.70;99.90
52459;DHT22;38372;52.902;6.024;2023-02-25T18:24:58;1.50;99.90
52459;DHT22;38372;52.902;6.024;2023-02-25T18:27:29;1.40;99.90
52459;DHT22;38372;52.902;6.024;2023-02-25T18:30:17;1.40;99.90
52459;DHT22;38372;52.902;6.024;2023-02-25T18:32:45;1.30;99.90
52459;DHT22;38372;52.902;6.024;2023-02-25T18:35:12;1.40;99.90
52459;DHT22;38372;52.902;6.024;2023-02-25T18:37:39;1.40;99.90
52459;DHT22;38372;52.902;6.024;2023-02-25T18:40:06;1.40;99.90
52459;DHT22;38372;52.902;6.024;2023-02-25T18:42:35;1.40;99.90
52459;DHT22;38372;52.902;6.024;2023-02-25T18:45:16;1.40;99.90
52459;DHT22;38372;52.902;6.024;2023-02-25T18:47:51;1.40;99.90
52459;DHT22;38372;52.902;6.024;2023-02-25T18:50:34;1.40;99.90
52459;DHT22;38372;52.902;6.024;2023-02-25T18:53:27;1.40;99.90
52459;DHT22;38372;52.902;6.024;2023-02-25T18:56:30;1.40;99.90
52459;DHT22;38372;52.902;6.024;2023-02-25T18:59:07;1.40;99.90
52459;DHT22;38372;52.902;6.024;2023-02-25T19:01:43;1.30;99.90
52459;DHT22;38372;52.902;6.024;2023-02-25T19:04:19;1.30;99.90
52459;DHT22;38372;52.902;6.024;2023-02-25T19:06:59;1.30;99.90
52459;DHT22;38372;52.902;6.024;2023-02-25T19:09:37;1.30;99.90
52459;DHT22;38372;52.902;6.024;2023-02-25T19:12:18;1.30;99.90
52459;DHT22;38372;52.902;6.024;2023-02-25T19:15:07;1.30;99.90
52459;DHT22;38372;52.902;6.024;2023-02-25T19:17:56;1.20;99.90
52459;DHT22;38372;52.902;6.024;2023-02-25T19:20:35;1.20;99.90
52459;DHT22;38372;52.902;6.024;2023-02-25T19:23:15;1.10;99.90
52459;DHT22;38372;52.902;6.024;2023-02-25T19:25:58;1.10;99.90
52459;DHT22;38372;52.902;6.024;2023-02-25T19:28:30;1.10;99.90
52459;DHT22;38372;52.902;6.024;2023-02-25T19:30:56;1.10;99.90
52459;DHT22;38372;52.902;6.024;2023-02-25T19:33:22;1.10;99.90
52459;DHT22;38372;52.902;6.024;2023-02-25T19:35:48;1.00;99.90
52459;DHT22;38372;52.902;6.024;2023-02-25T19:38:16;1.00;99.90
52459;DHT22;38372;52.902;6.024;2023-02-25T19:40:44;0.90;99.90
52459;DHT22;38372;52.902;6.024;2023-02-25T19:43:11;0.90;99.90
52459;DHT22;38372;52.902;6.024;2023-02-25T19:45:38;0.90;99.90
52459;DHT22;38372;52.902;6.024;2023-02-25T19:48:11;0.90;99.90
52459;DHT22;38372;52.902;6.024;2023-02-25T19:50:50;0.90;99.90
52459;DHT22;38372;52.902;6.024;2023-02-25T19:53:39;0.90;99.90
52459;DHT22;38372;52.902;6.024;2023-02-25T19:56:29;0.80;99.90
52459;DHT22;38372;52.902;6.024;2023-02-25T19:59:10;0.80;99.90
52459;DHT22;38372;52.902;6.024;2023-02-25T20:01:39;0.80;99.90
52459;DHT22;38372;52.902;6.024;2023-02-25T20:04:10;0.80;99.90
52459;DHT22;38372;52.902;6.024;2023-02-25T20:06:42;0.80;99.90
52459;DHT22;38372;52.902;6.024;2023-02-25T20:09:13;0.80;99.90
52459;DHT22;38372;52.902;6.024;2023-02-25T20:11:52;0.80;99.90
52459;DHT22;38372;52.902;6.024;2023-02-25T20:14:31;0.70;99.90
52459;DHT22;38372;52.902;6.024;2023-02-25T20:17:00;0.70;99.90
52459;DHT22;38372;52.902;6.024;2023-02-25T20:19:27;0.70;99.90
52459;DHT22;38372;52.902;6.024;2023-02-25T20:21:57;0.60;99.90
52459;DHT22;38372;52.902;6.024;2023-02-25T20:24:24;0.60;99.90
52459;DHT22;38372;52.902;6.024;2023-02-25T20:26:50;0.60;99.90
52459;DHT22;38372;52.902;6.024;2023-02-25T20:29:16;0.60;99.90